createdAt,value
2023-05-10T00:13:54.728Z,399
2023-05-10T00:33:54.727Z,400
2023-05-10T00:53:54.760Z,400
2023-05-10T01:13:54.813Z,405
2023-05-10T01:33:54.772Z,409
2023-05-10T01:53:54.863Z,410
2023-05-10T02:13:54.889Z,413
2023-05-10T02:33:54.889Z,412
2023-05-10T02:53:54.936Z,418
2023-05-10T03:13:54.954Z,418
2023-05-10T03:33:54.996Z,419
2023-05-10T03:53:55.028Z,420
2023-05-10T04:13:55.044Z,421
2023-05-10T04:33:55.057Z,419
2023-05-10T04:54:05.018Z,414
2023-05-10T05:13:55.117Z,406
2023-05-10T05:33:54.959Z,403
2023-05-10T05:53:55.177Z,396
2023-05-10T06:13:55.194Z,392
2023-05-10T06:33:56.719Z,391
2023-05-10T06:53:55.268Z,389
2023-05-10T07:13:55.280Z,388
2023-05-10T07:33:55.318Z,386
2023-05-10T07:53:55.358Z,381
2023-05-10T08:13:55.177Z,381
2023-05-10T08:53:55.428Z,367
2023-05-10T09:13:55.434Z,365
2023-05-10T09:33:55.469Z,362
2023-05-10T09:53:55.524Z,356
2023-05-10T10:13:55.509Z,358
2023-05-10T10:33:55.569Z,361
2023-05-10T10:53:55.575Z,356
2023-05-10T11:13:55.595Z,358
2023-05-10T11:33:55.624Z,356
2023-05-10T11:53:55.645Z,355
2023-05-10T12:13:55.679Z,356
2023-05-10T12:53:55.706Z,355
2023-05-10T13:13:55.754Z,352
2023-05-10T13:33:55.780Z,349
2023-05-10T13:53:55.816Z,346
2023-05-10T14:13:55.876Z,347
2023-05-10T14:33:55.851Z,349
2023-05-10T14:53:55.869Z,341
2023-05-10T15:13:55.888Z,343
2023-05-10T15:33:55.874Z,339
2023-05-10T15:54:06.228Z,342
2023-05-10T16:33:55.872Z,345
2023-05-10T16:53:56.018Z,340
2023-05-10T17:13:56.028Z,339
2023-05-10T17:33:56.034Z,335
2023-05-10T17:53:56.069Z,338
2023-05-10T18:13:56.104Z,339
2023-05-10T18:33:56.015Z,341
2023-05-10T18:53:56.144Z,350
2023-05-10T19:13:56.156Z,350
2023-05-10T19:33:57.563Z,351
2023-05-10T19:53:56.221Z,356
2023-05-10T20:13:56.227Z,365
2023-05-10T20:33:56.268Z,372
2023-05-10T20:53:56.319Z,372
2023-05-10T21:13:56.335Z,366
2023-05-10T21:33:56.424Z,364
2023-05-10T21:53:56.407Z,365
2023-05-10T22:13:56.393Z,372
2023-05-10T22:33:56.429Z,393
2023-05-10T22:53:56.463Z,405
2023-05-10T23:13:56.542Z,402
2023-05-10T23:33:56.518Z,395
2023-05-10T23:53:56.601Z,385
